Time;durP1;ratioP1;P1;durP2;ratioP2;P2;SDS_P1;SDS_P2;PMS_P1;PMS_P2;Temp;Humidity;BMP_temperature;BMP_pressure;BME280_temperature;BME280_humidity;BME280_pressure;Samples;Min_cycle;Max_cycle;Signal;HPM_P1;HPM_P2
2023/01/27 00:00:10;;;;;;;29.98;15.38;;;;;;;-0.05;100.00;98840.34;4950506;29;20047;-70
2023/01/27 00:03:18;;;;;;;22.92;12.80;;;;;;;0.09;100.00;98838.28;4950490;29;20051;-73
2023/01/27 00:06:05;;;;;;;24.45;13.52;;;;;;;-0.08;100.00;98850.72;4956815;28;20055;-67
2023/01/27 00:08:49;;;;;;;24.15;13.50;;;;;;;-0.15;100.00;98848.25;4961595;28;20409;-68
2023/01/27 00:14:37;;;;;;;29.90;14.18;;;;;;;-0.47;100.00;98846.44;4955488;28;20487;-67
2023/01/27 00:17:22;;;;;;;23.08;12.80;;;;;;;-0.36;100.00;98844.47;4952847;29;20058;-67
2023/01/27 00:20:08;;;;;;;24.38;13.40;;;;;;;-0.28;100.00;98844.31;4954589;28;20129;-69
2023/01/27 00:25:59;;;;;;;20.92;12.48;;;;;;;-0.06;100.00;98843.78;4947728;29;20183;-68
2023/01/27 00:28:45;;;;;;;24.90;12.73;;;;;;;-0.02;100.00;98845.41;4953688;28;20079;-67
2023/01/27 00:34:33;;;;;;;21.15;12.52;;;;;;;-0.09;100.00;98841.28;4954457;28;20055;-68
2023/01/27 00:37:17;;;;;;;22.70;13.13;;;;;;;0.03;100.00;98841.00;4954436;29;20078;-68
2023/01/27 00:40:02;;;;;;;22.90;13.20;;;;;;;0.04;100.00;98845.28;4954487;28;20113;-67
2023/01/27 00:42:47;;;;;;;22.33;12.63;;;;;;;0.17;100.00;98842.38;4954091;28;20625;-67
2023/01/27 00:45:50;;;;;;;21.58;11.63;;;;;;;0.08;100.00;98853.78;4955052;29;20094;-68
2023/01/27 00:48:35;;;;;;;20.20;11.05;;;;;;;0.06;100.00;98848.66;4945465;28;20045;-69
2023/01/27 00:51:21;;;;;;;21.83;12.27;;;;;;;0.11;100.00;98843.41;4942248;29;20124;-67
2023/01/27 00:54:06;;;;;;;19.50;11.25;;;;;;;0.05;100.00;98840.97;4966818;28;20103;-67
2023/01/27 00:56:50;;;;;;;17.85;10.50;;;;;;;-0.01;100.00;98840.22;4954502;28;20047;-78
2023/01/27 00:59:35;;;;;;;22.27;12.13;;;;;;;0.11;100.00;98843.41;4939481;29;20043;-69
2023/01/27 01:02:20;;;;;;;20.88;11.20;;;;;;;0.20;100.00;98842.31;4953073;28;20043;-68
2023/01/27 01:05:05;;;;;;;22.33;12.77;;;;;;;-0.05;100.00;98858.38;4953235;28;20115;-76
2023/01/27 01:07:49;;;;;;;20.38;12.02;;;;;;;0.04;100.00;98842.69;4952373;28;20062;-68
2023/01/27 01:10:37;;;;;;;23.27;12.27;;;;;;;-0.46;100.00;98843.84;4954247;28;20538;-67
2023/01/27 01:13:22;;;;;;;19.83;11.20;;;;;;;-0.17;100.00;98850.06;4913664;28;1182219;-67
2023/01/27 01:16:19;;;;;;;23.42;12.52;;;;;;;-0.26;100.00;98840.78;4953874;28;20043;-68
2023/01/27 01:19:04;;;;;;;23.58;13.18;;;;;;;-0.53;100.00;98837.97;4945016;29;20071;-69
2023/01/27 01:21:49;;;;;;;23.38;12.57;;;;;;;-0.26;100.00;98839.94;4954728;28;20089;-69
2023/01/27 01:24:34;;;;;;;23.73;12.88;;;;;;;-0.20;100.00;98837.25;4958662;28;20051;-68
2023/01/27 01:27:19;;;;;;;24.77;12.68;;;;;;;-0.44;100.00;98839.47;4967116;28;20050;-68
2023/01/27 01:30:05;;;;;;;22.95;12.27;;;;;;;-0.19;100.00;98833.78;4955058;28;20498;-68
2023/01/27 01:32:50;;;;;;;25.88;14.80;;;;;;;-0.08;100.00;98820.63;4954781;29;20055;-67
2023/01/27 01:35:36;;;;;;;23.95;13.88;;;;;;;-0.06;100.00;98825.75;4954676;28;20050;-68
2023/01/27 01:38:21;;;;;;;30.80;14.60;;;;;;;-0.30;100.00;98825.47;4953224;28;20043;-68
2023/01/27 01:41:09;;;;;;;22.77;12.32;;;;;;;-0.27;100.00;98818.50;4955115;28;20082;-68
2023/01/27 01:43:54;;;;;;;25.50;13.70;;;;;;;-0.28;100.00;98818.56;4954114;28;20073;-68
2023/01/27 01:46:38;;;;;;;23.17;12.57;;;;;;;-0.61;100.00;98806.41;4943410;28;20129;-70
2023/01/27 01:49:35;;;;;;;22.15;12.45;;;;;;;-0.90;100.00;98803.56;4954912;28;20053;-67
2023/01/27 01:52:20;;;;;;;22.27;12.50;;;;;;;-0.75;100.00;98801.53;4954270;28;20483;-68
2023/01/27 01:55:05;;;;;;;21.35;11.52;;;;;;;-0.46;100.00;98794.91;4952987;28;20039;-67
2023/01/27 01:57:50;;;;;;;20.00;12.57;;;;;;;-0.54;100.00;98789.91;4940095;29;20149;-68
2023/01/27 02:00:35;;;;;;;21.83;12.95;;;;;;;-0.45;100.00;98791.47;4954163;28;20074;-67
2023/01/27 02:03:21;;;;;;;21.75;12.05;;;;;;;-0.33;100.00;98781.75;4953617;28;20044;-71
2023/01/27 02:06:06;;;;;;;22.15;12.85;;;;;;;-0.58;100.00;98782.31;4944075;29;20051;-68
2023/01/27 02:08:51;;;;;;;20.25;11.93;;;;;;;-0.81;100.00;98781.94;4953311;28;20043;-67
2023/01/27 02:11:35;;;;;;;21.92;13.43;;;;;;;-0.77;100.00;98786.13;4963359;28;20122;-67
2023/01/27 02:14:20;;;;;;;21.30;11.93;;;;;;;-1.13;100.00;98776.59;4954200;28;20059;-68
2023/01/27 02:17:04;;;;;;;21.35;12.23;;;;;;;-0.94;100.00;98780.50;4948433;28;20464;-70
2023/01/27 02:20:10;;;;;;;24.92;13.65;;;;;;;-1.07;100.00;98775.63;4951207;28;20513;-68
2023/01/27 02:23:01;;;;;;;22.27;13.27;;;;;;;-0.93;100.00;98775.31;4961858;28;20078;-68
2023/01/27 02:25:47;;;;;;;24.02;13.57;;;;;;;-0.87;100.00;98784.66;4943256;28;20047;-68
2023/01/27 02:28:33;;;;;;;24.10;12.32;;;;;;;-0.87;100.00;98776.94;4951652;28;20063;-71
2023/01/27 02:31:18;;;;;;;22.55;13.15;;;;;;;-0.66;100.00;98778.19;4956127;28;20047;-68
2023/01/27 02:34:06;;;;;;;22.15;13.40;;;;;;;-1.04;100.00;98773.00;4959507;28;20142;-68
2023/01/27 02:37:01;;;;;;;23.70;13.43;;;;;;;-0.87;100.00;98770.06;4960345;28;20071;-68
2023/01/27 02:39:49;;;;;;;22.92;12.52;;;;;;;-0.81;100.00;98773.38;4942099;28;20075;-67
2023/01/27 02:42:35;;;;;;;24.90;14.18;;;;;;;-0.72;100.00;98777.47;4954145;29;20051;-67
2023/01/27 02:45:19;;;;;;;25.23;13.60;;;;;;;-0.94;100.00;98771.06;4953293;29;20075;-68
2023/01/27 02:48:04;;;;;;;23.30;12.80;;;;;;;-1.02;100.00;98763.53;4941122;28;20439;-68
2023/01/27 02:50:49;;;;;;;25.75;13.68;;;;;;;-0.79;100.00;98769.03;4953770;28;20383;-68
2023/01/27 02:53:34;;;;;;;24.02;13.30;;;;;;;-0.96;100.00;98762.53;4966908;28;20051;-69
2023/01/27 02:56:19;;;;;;;25.08;13.35;;;;;;;-0.80;100.00;98764.78;4943253;28;20051;-68
2023/01/27 02:59:03;;;;;;;22.33;12.82;;;;;;;-0.79;100.00;98767.31;4953280;28;20174;-70
2023/01/27 03:01:53;;;;;;;23.98;13.52;;;;;;;-0.78;100.00;98773.31;4950788;28;20153;-70
2023/01/27 03:04:38;;;;;;;24.40;13.82;;;;;;;-0.62;100.00;98766.94;4944170;28;20051;-68
2023/01/27 03:07:23;;;;;;;24.90;14.52;;;;;;;-0.67;100.00;98775.66;4940665;29;20069;-70
2023/01/27 03:10:09;;;;;;;24.80;14.05;;;;;;;-0.64;100.00;98766.13;4957255;28;20094;-68
2023/01/27 03:12:53;;;;;;;27.33;14.43;;;;;;;-0.95;100.00;98761.66;4938856;29;20063;-69
2023/01/27 03:18:46;;;;;;;27.75;15.45;;;;;;;-0.97;100.00;98760.84;4952470;28;20050;-67
2023/01/27 03:21:31;;;;;;;27.73;14.32;;;;;;;-0.80;100.00;98763.03;4951715;28;20118;-68
2023/01/27 03:24:16;;;;;;;30.40;15.80;;;;;;;-0.94;100.00;98762.50;4952229;28;20401;-68
2023/01/27 03:27:01;;;;;;;26.45;14.82;;;;;;;-1.08;100.00;98767.94;4951638;28;20486;-67
2023/01/27 03:30:05;;;;;;;25.00;13.85;;;;;;;-1.14;100.00;98769.75;4952336;28;20103;-70
2023/01/27 03:32:49;;;;;;;25.08;13.68;;;;;;;-1.00;100.00;98769.47;4952803;28;20568;-67
2023/01/27 03:48:19;;;;;;;22.75;12.77;;;;;;;-1.01;100.00;98756.63;4942797;28;20131;-71
2023/01/27 03:51:06;;;;;;;24.15;13.95;;;;;;;-1.00;100.00;98755.78;4952742;28;20066;-69
2023/01/27 03:53:53;;;;;;;23.60;13.10;;;;;;;-0.82;100.00;98754.53;4952425;28;20054;-68
2023/01/27 03:56:37;;;;;;;23.75;12.23;;;;;;;-0.63;100.00;98744.66;4944475;28;20046;-68
2023/01/27 03:59:22;;;;;;;23.45;13.07;;;;;;;-0.82;100.00;98751.09;4952157;28;20050;-68
2023/01/27 04:08:13;;;;;;;25.17;14.18;;;;;;;-1.16;100.00;98742.41;4951475;28;20110;-69
2023/01/27 04:14:09;;;;;;;23.73;14.05;;;;;;;-0.99;100.00;98742.03;4950146;28;20051;-68
2023/01/27 04:17:15;;;;;;;23.67;14.02;;;;;;;-1.05;100.00;98744.72;4964893;28;20051;-69
2023/01/27 04:20:02;;;;;;;27.15;14.27;;;;;;;-1.14;100.00;98746.63;4950450;29;20039;-68
2023/01/27 04:22:47;;;;;;;23.85;13.77;;;;;;;-1.14;100.00;98738.91;4964907;28;20117;-68
2023/01/27 04:25:31;;;;;;;22.48;13.75;;;;;;;-1.13;100.00;98743.16;4968723;28;20047;-68
2023/01/27 04:28:16;;;;;;;24.20;14.20;;;;;;;-1.30;100.00;98737.50;4955568;28;20550;-68
2023/01/27 04:31:00;;;;;;;21.60;13.55;;;;;;;-1.32;100.00;98729.00;4954965;28;20075;-68
2023/01/27 04:33:45;;;;;;;21.67;12.55;;;;;;;-1.24;100.00;98732.28;4956897;28;20057;-68
2023/01/27 04:36:31;;;;;;;22.65;12.60;;;;;;;-1.19;100.00;98730.44;4947872;29;20047;-68
2023/01/27 04:39:16;;;;;;;21.85;12.77;;;;;;;-1.15;100.00;98731.22;4953986;28;20067;-68
2023/01/27 04:42:02;;;;;;;20.70;12.65;;;;;;;-1.14;100.00;98733.75;4956156;28;20047;-68
2023/01/27 04:44:47;;;;;;;21.50;12.55;;;;;;;-1.11;100.00;98735.44;4955094;29;20058;-68
2023/01/27 04:47:32;;;;;;;22.00;12.60;;;;;;;-1.30;100.00;98732.38;4955782;28;20043;-68
2023/01/27 04:50:17;;;;;;;21.67;11.98;;;;;;;-1.27;100.00;98727.16;4968228;28;20439;-68
2023/01/27 04:53:02;;;;;;;21.95;12.77;;;;;;;-1.27;100.00;98728.03;4967444;28;20443;-67
2023/01/27 04:55:48;;;;;;;23.05;13.23;;;;;;;-1.23;100.00;98731.38;4944630;29;20047;-73
2023/01/27 04:58:33;;;;;;;24.52;12.93;;;;;;;-1.31;100.00;98726.41;4954746;29;20070;-66
2023/01/27 05:01:18;;;;;;;22.25;12.82;;;;;;;-1.21;100.00;98733.94;4964034;28;20042;-67
2023/01/27 05:04:03;;;;;;;21.17;12.43;;;;;;;-1.17;100.00;98730.41;4964685;28;20047;-66
2023/01/27 05:06:48;;;;;;;25.48;12.82;;;;;;;-1.36;100.00;98728.22;4964576;28;20121;-67
2023/01/27 05:09:32;;;;;;;20.15;11.73;;;;;;;-1.38;100.00;98728.25;4971454;28;20059;-74
2023/01/27 05:12:17;;;;;;;19.23;11.73;;;;;;;-1.35;100.00;98729.06;4970289;28;20050;-68
2023/01/27 05:15:02;;;;;;;21.85;11.02;;;;;;;-1.32;100.00;98726.44;4962725;28;20070;-68
2023/01/27 05:17:47;;;;;;;20.65;11.48;;;;;;;-1.12;100.00;98739.72;4962264;28;20047;-68
2023/01/27 05:20:32;;;;;;;20.95;11.80;;;;;;;-1.12;100.00;98731.16;4965035;28;20049;-64
2023/01/27 05:23:34;;;;;;;21.25;11.35;;;;;;;-1.16;100.00;98734.69;4965286;28;20086;-65
2023/01/27 05:26:24;;;;;;;19.05;10.93;;;;;;;-1.13;100.00;98740.59;4947108;28;20050;-65
2023/01/27 05:29:09;;;;;;;20.50;11.35;;;;;;;-1.18;100.00;98734.72;4942606;28;20078;-67
2023/01/27 05:31:54;;;;;;;19.58;10.65;;;;;;;-1.34;100.00;98736.75;4941039;28;20047;-66
2023/01/27 05:34:38;;;;;;;20.42;11.75;;;;;;;-1.33;100.00;98740.16;4954475;28;20047;-69
2023/01/27 05:37:23;;;;;;;25.40;14.40;;;;;;;-1.26;100.00;98746.88;4935531;29;20062;-65
2023/01/27 05:40:09;;;;;;;22.58;12.48;;;;;;;-1.47;100.00;98735.31;4961580;28;20105;-64
2023/01/27 05:42:54;;;;;;;20.98;12.75;;;;;;;-1.55;100.00;98738.84;4949709;28;20059;-70
2023/01/27 05:45:39;;;;;;;21.25;11.32;;;;;;;-1.30;100.00;98735.81;4959581;28;20047;-67
2023/01/27 05:48:23;;;;;;;20.20;11.80;;;;;;;-1.22;100.00;98732.25;4946636;28;20563;-67
2023/01/27 05:51:09;;;;;;;19.65;11.27;;;;;;;-1.33;100.00;98742.72;4954477;28;20167;-70
2023/01/27 05:53:54;;;;;;;18.23;11.18;;;;;;;-1.26;100.00;98732.28;4954750;28;20050;-67
2023/01/27 05:56:39;;;;;;;20.77;11.82;;;;;;;-1.27;100.00;98730.59;4951125;28;20051;-66
2023/01/27 05:59:24;;;;;;;21.15;11.65;;;;;;;-1.39;100.00;98730.84;4953228;29;20072;-68
2023/01/27 06:02:09;;;;;;;16.80;9.52;;;;;;;-0.72;100.00;98733.72;4954343;28;20402;-67
2023/01/27 06:04:53;;;;;;;19.23;10.10;;;;;;;-0.51;100.00;98732.41;4953354;28;20043;-69
2023/01/27 06:07:38;;;;;;;17.33;11.00;;;;;;;-0.88;100.00;98734.06;4944184;28;20048;-69
2023/01/27 06:10:23;;;;;;;18.10;11.40;;;;;;;-0.90;100.00;98722.97;4941825;28;20055;-66
2023/01/27 06:13:07;;;;;;;22.42;12.23;;;;;;;-1.07;100.00;98728.47;4952658;28;20055;-69
2023/01/27 06:15:54;;;;;;;20.05;11.35;;;;;;;-1.18;100.00;98732.13;4952985;28;20106;-69
2023/01/27 06:18:39;;;;;;;22.23;11.32;;;;;;;-1.26;100.00;98734.84;4943461;29;20057;-71
2023/01/27 06:21:24;;;;;;;21.10;11.32;;;;;;;-1.33;100.00;98735.88;4952615;28;20047;-70
2023/01/27 06:24:09;;;;;;;21.60;11.75;;;;;;;-1.21;100.00;98736.50;4939527;29;20055;-70
2023/01/27 06:26:54;;;;;;;20.77;11.00;;;;;;;-1.26;100.00;98740.00;4950290;28;20142;-70
2023/01/27 06:29:40;;;;;;;19.15;11.13;;;;;;;-1.43;100.00;98742.06;4946807;28;20054;-69
2023/01/27 06:32:24;;;;;;;18.73;10.75;;;;;;;-1.18;100.00;98742.44;4955520;28;20047;-70
2023/01/27 06:35:09;;;;;;;20.70;11.70;;;;;;;-1.01;100.00;98739.47;4953135;28;20047;-70
2023/01/27 06:37:54;;;;;;;18.17;10.15;;;;;;;-1.28;100.00;98743.47;4953649;28;20134;-70
2023/01/27 06:40:38;;;;;;;18.10;9.75;;;;;;;-1.15;100.00;98749.22;4956112;28;20122;-72
2023/01/27 06:43:23;;;;;;;20.33;11.40;;;;;;;-1.29;100.00;98762.38;4946531;28;20665;-70
2023/01/27 06:46:08;;;;;;;19.33;10.73;;;;;;;-0.98;100.00;98761.75;4931952;28;20381;-70
2023/01/27 06:48:53;;;;;;;21.17;12.05;;;;;;;-0.98;100.00;98764.31;4951620;28;20050;-75
2023/01/27 06:51:38;;;;;;;17.77;10.43;;;;;;;-0.98;100.00;98761.75;4952662;28;20078;-64
2023/01/27 06:54:22;;;;;;;20.40;11.50;;;;;;;0.01;100.00;98767.19;4949386;28;20462;-65
2023/01/27 06:57:10;;;;;;;20.17;11.18;;;;;;;0.28;100.00;98764.81;4952095;29;20047;-63
2023/01/27 06:59:55;;;;;;;21.45;11.80;;;;;;;-0.50;98.93;98775.25;4953073;29;20050;-66
2023/01/27 07:02:40;;;;;;;19.33;10.60;;;;;;;-1.19;100.00;98769.00;4958027;28;20039;-65
2023/01/27 07:05:25;;;;;;;19.63;11.57;;;;;;;-0.06;100.00;98769.94;4938607;28;20122;-64
2023/01/27 07:08:10;;;;;;;21.35;10.98;;;;;;;0.02;98.68;98774.88;4940954;28;20048;-62
2023/01/27 07:10:54;;;;;;;20.38;10.95;;;;;;;-0.34;98.83;98777.50;4946556;28;20047;-63
2023/01/27 07:13:39;;;;;;;22.00;11.13;;;;;;;0.03;98.81;98780.91;4951375;28;20055;-65
2023/01/27 07:16:23;;;;;;;18.80;10.75;;;;;;;0.07;94.30;98778.19;4936584;28;20149;-65
2023/01/27 07:19:08;;;;;;;20.48;11.40;;;;;;;-0.63;96.96;98777.28;4947887;28;20040;-68
2023/01/27 07:21:53;;;;;;;22.67;11.90;;;;;;;-0.91;98.58;98771.00;4942697;28;20415;-63
2023/01/27 07:24:37;;;;;;;23.10;11.38;;;;;;;-1.13;100.00;98775.75;4954890;28;20065;-66
2023/01/27 07:27:23;;;;;;;20.70;11.35;;;;;;;-1.02;100.00;98785.81;4959890;28;20097;-65
2023/01/27 07:30:08;;;;;;;21.02;11.70;;;;;;;-0.90;100.00;98785.53;4955765;28;20046;-65
2023/01/27 07:32:54;;;;;;;18.88;11.45;;;;;;;-0.81;99.19;98788.81;4960195;28;20550;-64
2023/01/27 07:35:40;;;;;;;23.13;12.43;;;;;;;-0.81;99.48;98789.66;4941237;28;20091;-66
2023/01/27 07:38:25;;;;;;;22.05;11.32;;;;;;;-0.87;100.00;98787.22;4951946;28;20145;-67
2023/01/27 07:41:10;;;;;;;21.50;11.82;;;;;;;-0.59;98.85;98785.78;4937028;28;20047;-65
2023/01/27 07:43:54;;;;;;;21.63;12.07;;;;;;;-1.42;100.00;98790.88;4952190;28;20079;-63
2023/01/27 07:46:40;;;;;;;21.15;12.25;;;;;;;-0.83;100.00;98799.13;4935723;28;20047;-66
2023/01/27 07:49:25;;;;;;;20.40;11.60;;;;;;;-1.18;100.00;98793.00;4946560;28;20146;-65
2023/01/27 07:52:10;;;;;;;20.15;11.23;;;;;;;-0.98;100.00;98777.19;4945601;28;20047;-66
2023/01/27 07:54:55;;;;;;;19.58;10.65;;;;;;;-0.38;100.00;98793.00;4961195;28;20050;-68
2023/01/27 07:57:40;;;;;;;21.55;11.10;;;;;;;-0.49;98.05;98797.56;4953559;29;20154;-67
2023/01/27 08:00:25;;;;;;;20.20;11.07;;;;;;;-1.01;99.38;98801.22;4955322;28;20047;-68
2023/01/27 08:03:21;;;;;;;22.88;12.15;;;;;;;-1.01;100.00;98795.22;4966984;28;20558;-68
2023/01/27 08:06:07;;;;;;;22.83;12.23;;;;;;;-0.86;100.00;98804.34;4945679;29;20081;-64
2023/01/27 08:08:52;;;;;;;23.92;11.93;;;;;;;-0.95;99.08;98804.53;4952202;28;20123;-70
2023/01/27 08:11:36;;;;;;;20.10;11.40;;;;;;;-0.92;97.99;98802.75;4968891;28;20129;-70
2023/01/27 08:14:21;;;;;;;22.20;12.48;;;;;;;-1.06;98.71;98812.50;4964628;28;20062;-71
2023/01/27 08:17:05;;;;;;;22.23;12.38;;;;;;;-1.41;100.00;98814.84;4938458;28;20048;-72
2023/01/27 08:19:51;;;;;;;21.98;12.40;;;;;;;0.16;100.00;98822.66;4937189;29;20039;-68
2023/01/27 08:22:35;;;;;;;21.75;12.27;;;;;;;0.19;100.00;98820.88;4954404;28;20058;-68
2023/01/27 08:25:20;;;;;;;22.40;12.27;;;;;;;-0.12;98.34;98829.34;4936060;28;20046;-61
2023/01/27 08:28:04;;;;;;;20.23;11.40;;;;;;;-0.02;97.65;98828.22;4957134;28;20098;-67
2023/01/27 08:30:52;;;;;;;22.60;13.00;;;;;;;-1.06;97.17;98838.22;4948511;29;20485;-66
2023/01/27 08:33:37;;;;;;;19.88;11.70;;;;;;;-1.32;99.88;98827.53;4937965;29;20091;-66
2023/01/27 08:36:22;;;;;;;22.48;12.68;;;;;;;-1.47;100.00;98828.69;4952834;29;20047;-65
2023/01/27 08:39:09;;;;;;;21.00;12.13;;;;;;;-1.16;100.00;98833.22;4954380;28;20058;-67
2023/01/27 08:41:53;;;;;;;23.70;13.15;;;;;;;-1.39;100.00;98828.53;4945489;29;20127;-66
2023/01/27 08:44:38;;;;;;;23.08;12.10;;;;;;;-1.53;100.00;98819.34;4950378;28;20046;-65
2023/01/27 08:47:23;;;;;;;18.80;11.45;;;;;;;-1.45;100.00;98826.91;4950382;28;20118;-65
2023/01/27 08:50:08;;;;;;;21.85;11.68;;;;;;;0.48;100.00;98815.84;4947803;28;20458;-65
2023/01/27 08:52:53;;;;;;;24.17;12.93;;;;;;;-0.90;100.00;98813.84;4955025;29;20031;-65
2023/01/27 08:55:37;;;;;;;23.15;11.43;;;;;;;1.92;100.00;98807.41;4955492;28;20454;-61
2023/01/27 08:58:23;;;;;;;21.70;12.35;;;;;;;0.96;100.00;98821.44;4963604;28;20045;-68
2023/01/27 09:01:08;;;;;;;22.63;9.43;;;;;;;0.14;99.79;98817.56;4954351;28;20046;-67
2023/01/27 09:03:53;;;;;;;40.30;12.13;;;;;;;1.69;100.00;98813.28;4954312;28;20130;-64
2023/01/27 09:06:37;;;;;;;24.38;11.35;;;;;;;0.49;99.02;98818.38;4940380;29;20067;-70
2023/01/27 09:09:22;;;;;;;19.30;11.48;;;;;;;-0.89;100.00;98817.28;4955592;28;20069;-67
2023/01/27 09:12:07;;;;;;;21.13;11.65;;;;;;;-0.78;100.00;98829.91;4944145;28;20039;-75
2023/01/27 09:14:52;;;;;;;18.35;10.52;;;;;;;0.98;100.00;98819.66;4955336;28;20057;-73
2023/01/27 09:17:37;;;;;;;23.23;12.18;;;;;;;-0.36;100.00;98831.59;4954901;28;20047;-69
2023/01/27 09:20:22;;;;;;;22.23;11.88;;;;;;;0.66;100.00;98840.28;4974173;28;20043;-69
2023/01/27 09:23:06;;;;;;;28.45;12.10;;;;;;;0.77;100.00;98836.59;4960494;28;20047;-68
2023/01/27 09:25:51;;;;;;;22.85;11.88;;;;;;;-0.05;100.00;98842.91;4954303;29;20043;-71
2023/01/27 09:28:36;;;;;;;22.38;12.48;;;;;;;0.04;100.00;98840.13;4967225;28;20054;-71
2023/01/27 09:31:20;;;;;;;22.95;12.63;;;;;;;-0.15;98.02;98839.72;4953296;28;20043;-70
2023/01/27 09:34:05;;;;;;;22.02;11.82;;;;;;;-0.62;100.00;98840.75;4930308;29;20139;-67
2023/01/27 09:36:56;;;;;;;20.65;12.10;;;;;;;-0.30;100.00;98826.31;4954405;28;20047;-71
2023/01/27 09:39:54;;;;;;;19.92;11.85;;;;;;;-0.87;100.00;98826.69;4954416;28;20043;-70
2023/01/27 09:42:46;;;;;;;25.00;12.63;;;;;;;-0.73;100.00;98830.66;4954411;29;20495;-67
2023/01/27 09:45:44;;;;;;;23.52;12.32;;;;;;;-0.96;100.00;98813.97;4943757;28;20039;-69
2023/01/27 09:49:00;;;;;;;23.00;12.95;;;;;;;-0.52;100.00;98815.63;4943537;28;20508;-73
2023/01/27 09:51:47;;;;;;;25.50;13.02;;;;;;;-0.72;100.00;98814.38;4953458;29;20059;-70
2023/01/27 09:54:38;;;;;;;30.05;13.45;;;;;;;2.59;100.00;98805.16;4952851;28;20040;-70
2023/01/27 09:58:00;;;;;;;21.00;12.00;;;;;;;1.04;100.00;98810.91;4953087;28;20550;-72
2023/01/27 10:01:12;;;;;;;21.92;12.30;;;;;;;-0.05;100.00;98810.25;4957285;28;20053;-73
2023/01/27 10:04:19;;;;;;;23.65;13.15;;;;;;;0.98;100.00;98814.47;4955580;28;20043;-71
2023/01/27 10:07:13;;;;;;;29.73;15.70;;;;;;;-0.33;99.79;98816.09;4959692;28;20469;-70
2023/01/27 10:10:35;;;;;;;23.58;13.25;;;;;;;-0.34;100.00;98809.22;4968857;28;20502;-69
2023/01/27 10:13:34;;;;;;;26.15;13.77;;;;;;;0.59;100.00;98816.41;4950760;28;20958;-70
2023/01/27 10:16:26;;;;;;;27.35;14.15;;;;;;;0.31;99.28;98801.66;4950412;29;20372;-70
2023/01/27 10:19:23;;;;;;;;;;;;;;;-0.55;100.00;98800.25;4950359;28;20130;-68
2023/01/27 10:22:37;;;;;;;25.08;13.93;;;;;;;-0.26;100.00;98791.88;4954235;28;19921;-71
2023/01/27 10:25:29;;;;;;;27.02;14.35;;;;;;;0.07;98.63;98801.41;4955656;28;20039;-71
2023/01/27 10:28:16;;;;;;;26.45;13.57;;;;;;;-0.23;99.44;98795.25;4949886;28;20071;-70
2023/01/27 10:31:07;;;;;;;23.52;13.95;;;;;;;-0.04;98.98;98800.81;4951859;28;20051;-69
2023/01/27 10:34:02;;;;;;;25.63;14.02;;;;;;;0.11;96.78;98802.16;4950800;28;20502;-69
2023/01/27 10:36:59;;;;;;;24.52;13.80;;;;;;;0.16;98.95;98794.31;4949835;28;20082;-69
2023/01/27 10:39:45;;;;;;;26.33;13.98;;;;;;;0.32;97.84;98793.03;4957687;28;20462;-70
2023/01/27 10:42:39;;;;;;;25.73;13.55;;;;;;;0.29;96.15;98789.69;4951355;28;20110;-70
2023/01/27 10:45:36;;;;;;;26.00;13.57;;;;;;;0.29;96.19;98793.13;4947368;28;20051;-69
2023/01/27 10:48:53;;;;;;;28.38;14.73;;;;;;;0.00;96.68;98794.72;4951497;29;20039;-71
2023/01/27 10:51:43;;;;;;;26.88;13.82;;;;;;;0.05;97.93;98785.13;4945969;28;20043;-68
2023/01/27 10:54:40;;;;;;;24.95;14.65;;;;;;;0.22;95.79;98783.84;4951152;28;20047;-74
2023/01/27 10:57:32;;;;;;;24.88;13.98;;;;;;;0.31;96.11;98788.75;4950372;28;20045;-73
2023/01/27 11:00:29;;;;;;;36.40;18.25;;;;;;;2.43;100.00;98786.75;4951185;28;20043;-73
2023/01/27 11:03:22;;;;;;;28.15;14.15;;;;;;;0.72;95.69;98790.25;4953585;28;20186;-70
2023/01/27 11:06:13;;;;;;;27.27;15.07;;;;;;;0.15;96.18;98800.38;4953471;28;20047;-62
2023/01/27 11:09:30;;;;;;;30.92;16.15;;;;;;;-0.06;96.93;98794.84;4939868;29;20062;-72
2023/01/27 11:12:15;;;;;;;27.55;15.90;;;;;;;0.01;98.69;98785.22;4952751;28;20043;-72
2023/01/27 11:15:12;;;;;;;27.27;15.45;;;;;;;0.05;98.85;98782.53;4956740;28;20047;-75
2023/01/27 11:18:01;;;;;;;35.50;16.77;;;;;;;0.92;100.00;98787.13;4946404;28;20118;-71
2023/01/27 11:20:51;;;;;;;33.08;17.27;;;;;;;0.13;98.08;98778.94;4939911;29;20047;-73
2023/01/27 11:23:41;;;;;;;33.42;16.83;;;;;;;-0.34;99.47;98787.78;4952717;28;20073;-68
2023/01/27 11:26:31;;;;;;;34.72;17.70;;;;;;;-0.58;100.00;98783.16;4959447;28;20044;-71
2023/01/27 11:29:39;;;;;;;32.97;16.73;;;;;;;-0.43;100.00;98781.97;4940601;28;20046;-71
2023/01/27 11:32:58;;;;;;;32.88;16.88;;;;;;;-0.28;99.34;98770.44;4945799;29;20047;-76
2023/01/27 11:35:43;;;;;;;33.92;17.75;;;;;;;-0.17;98.09;98770.22;4946655;28;20050;-71
2023/01/27 11:38:28;;;;;;;31.77;17.00;;;;;;;-0.29;98.33;98770.50;4969102;28;20047;-71
2023/01/27 11:41:13;;;;;;;30.80;16.88;;;;;;;-0.28;98.69;98767.88;4955513;28;20043;-73
2023/01/27 11:44:03;;;;;;;34.65;17.80;;;;;;;-0.32;98.17;98768.84;4966770;28;20491;-67
2023/01/27 11:46:49;;;;;;;36.38;17.98;;;;;;;-0.10;97.56;98770.06;4944884;29;20174;-64
2023/01/27 11:49:40;;;;;;;32.88;16.63;;;;;;;-0.07;96.88;98770.84;4957066;28;20043;-70
2023/01/27 11:52:27;;;;;;;36.80;19.43;;;;;;;0.09;96.22;98768.72;4942354;28;20051;-71
2023/01/27 11:55:14;;;;;;;37.38;17.85;;;;;;;0.50;93.81;98770.25;4956260;28;20047;-73
2023/01/27 11:58:29;;;;;;;35.53;17.08;;;;;;;0.36;94.73;98763.72;4955963;28;20035;-71
2023/01/27 12:01:21;;;;;;;44.75;19.60;;;;;;;2.93;100.00;98760.84;4961719;28;20047;-73
2023/01/27 12:04:16;;;;;;;49.60;18.73;;;;;;;2.38;100.00;98757.63;4957713;28;20126;-70
2023/01/27 12:07:20;;;;;;;34.50;17.40;;;;;;;0.48;91.55;98762.53;4961642;28;20383;-72
2023/01/27 12:10:26;;;;;;;34.80;18.08;;;;;;;0.83;93.56;98762.44;4956002;29;20074;-73
2023/01/27 12:13:24;;;;;;;34.47;17.08;;;;;;;0.54;94.37;98764.09;4953510;29;20074;-71
2023/01/27 12:16:09;;;;;;;29.33;16.27;;;;;;;0.47;91.04;98757.44;4951361;29;20578;-70
2023/01/27 12:19:02;;;;;;;33.17;17.15;;;;;;;0.78;90.02;98760.88;4940606;28;20058;-69
2023/01/27 12:21:51;;;;;;;33.08;16.90;;;;;;;0.87;90.10;98758.03;4963379;28;20056;-70
2023/01/27 12:24:41;;;;;;;31.17;16.27;;;;;;;0.52;88.13;98757.31;4962776;28;20486;-65
2023/01/27 12:27:29;;;;;;;31.88;17.48;;;;;;;0.46;89.18;98755.72;4957334;29;20401;-74
2023/01/27 12:30:21;;;;;;;32.30;16.83;;;;;;;0.22;90.92;98746.03;4956916;28;20073;-74
2023/01/27 12:33:12;;;;;;;31.60;16.63;;;;;;;0.64;87.84;98748.41;4953821;28;20122;-72
2023/01/27 12:36:11;;;;;;;31.15;16.83;;;;;;;1.05;88.42;98745.47;4959427;28;20047;-65
2023/01/27 12:39:00;;;;;;;30.85;16.02;;;;;;;0.61;88.78;98746.72;4955421;28;20047;-71
2023/01/27 12:41:45;;;;;;;38.47;16.63;;;;;;;2.00;100.00;98731.34;4946048;28;20070;-70
2023/01/27 12:44:42;;;;;;;35.13;16.25;;;;;;;1.38;90.89;98747.09;4957331;28;20146;-70
2023/01/27 12:47:29;;;;;;;30.92;15.68;;;;;;;1.18;87.03;98751.97;4948598;28;20387;-72
2023/01/27 12:50:23;;;;;;;28.58;14.93;;;;;;;1.04;84.56;98746.38;4975229;28;20118;-72
2023/01/27 12:53:11;;;;;;;29.98;15.30;;;;;;;0.93;84.88;98749.28;4957231;28;20039;-72
2023/01/27 12:56:05;;;;;;;30.15;15.68;;;;;;;1.05;84.72;98751.50;4966087;28;20054;-72
2023/01/27 12:58:53;;;;;;;25.48;14.45;;;;;;;0.28;84.54;98739.03;4955904;28;20055;-72
2023/01/27 13:01:40;;;;;;;30.52;14.70;;;;;;;0.32;85.73;98743.22;4954071;28;20097;-73
2023/01/27 13:04:27;;;;;;;32.70;15.35;;;;;;;1.74;100.00;98740.81;4955675;28;20390;-72
2023/01/27 13:07:16;;;;;;;30.73;15.15;;;;;;;1.75;88.73;98743.34;4952889;28;20035;-70
2023/01/27 13:10:03;;;;;;;29.80;14.57;;;;;;;1.52;84.62;98739.75;4954988;28;20090;-75
2023/01/27 13:12:53;;;;;;;28.35;14.32;;;;;;;1.73;82.09;98734.78;4955754;28;20054;-74
2023/01/27 13:15:51;;;;;;;30.10;15.60;;;;;;;0.86;82.48;98752.03;4954653;28;20106;-73
2023/01/27 13:18:41;;;;;;;26.17;14.00;;;;;;;0.75;84.28;98745.50;4957984;28;20043;-78
2023/01/27 13:21:35;;;;;;;28.52;15.70;;;;;;;0.11;87.22;98743.72;4944966;28;20091;-73
2023/01/27 13:24:33;;;;;;;26.48;14.45;;;;;;;0.60;87.80;98747.63;4953311;28;20035;-73